Time;durP1;ratioP1;P1;durP2;ratioP2;P2;SDS_P1;SDS_P2;PMS_P1;PMS_P2;Temp;Humidity;BMP_temperature;BMP_pressure;BME280_temperature;BME280_humidity;BME280_pressure;Samples;Min_cycle;Max_cycle;Signal;HPM_P1;HPM_P2
2021/05/22 00:00:00;;;;;;;2.67;1.08;;;13.40;99.90;;;;;;5022695;28;20040;-75
2021/05/22 00:02:26;;;;;;;6.50;1.00;;;13.20;99.90;;;;;;5026872;28;20195;-74
2021/05/22 00:04:52;;;;;;;5.93;1.25;;;13.40;99.90;;;;;;5030162;28;20060;-75
2021/05/22 00:07:18;;;;;;;3.45;0.90;;;13.30;99.90;;;;;;5021535;28;20079;-74
2021/05/22 00:09:45;;;;;;;2.38;0.98;;;13.20;99.90;;;;;;5020851;28;20059;-74
2021/05/22 00:12:11;;;;;;;4.47;1.10;;;13.40;99.90;;;;;;5020709;28;20021;-73
2021/05/22 00:14:37;;;;;;;2.30;0.80;;;13.30;99.90;;;;;;5022361;28;20044;-73
2021/05/22 00:17:03;;;;;;;6.28;1.17;;;13.30;99.90;;;;;;4997448;28;677241;-73
2021/05/22 00:19:29;;;;;;;3.30;0.80;;;13.20;99.90;;;;;;5024350;28;20093;-74
2021/05/22 00:21:54;;;;;;;3.60;0.82;;;13.30;99.90;;;;;;5021690;28;20021;-75
2021/05/22 00:24:20;;;;;;;4.18;1.02;;;13.30;99.90;;;;;;5025605;28;20056;-74
2021/05/22 00:26:46;;;;;;;4.05;1.10;;;13.50;99.90;;;;;;5021259;28;20031;-74
2021/05/22 00:29:11;;;;;;;5.88;1.42;;;13.50;99.90;;;;;;5023940;28;20037;-73
2021/05/22 00:31:37;;;;;;;3.00;0.85;;;13.60;99.40;;;;;;5021086;28;20053;-74
2021/05/22 00:34:03;;;;;;;4.50;0.88;;;13.70;99.50;;;;;;5023391;28;20032;-73
2021/05/22 00:36:29;;;;;;;2.25;0.93;;;13.90;97.10;;;;;;5024646;28;20052;-74
2021/05/22 00:38:55;;;;;;;1.42;0.68;;;14.10;97.00;;;;;;5020534;28;20601;-74
2021/05/22 00:41:20;;;;;;;2.85;1.00;;;14.20;96.10;;;;;;5020812;28;20037;-74
2021/05/22 00:43:46;;;;;;;4.72;0.90;;;14.20;96.00;;;;;;5020870;28;20021;-75
2021/05/22 00:46:12;;;;;;;3.88;1.58;;;14.30;95.60;;;;;;5028457;28;20510;-75
2021/05/22 00:48:38;;;;;;;5.00;1.33;;;14.30;95.50;;;;;;5023236;28;20806;-74
2021/05/22 00:51:04;;;;;;;4.93;0.82;;;14.40;95.30;;;;;;5021117;28;20053;-74
2021/05/22 00:53:30;;;;;;;4.38;1.10;;;14.40;95.70;;;;;;5021523;28;20058;-74
2021/05/22 00:56:00;;;;;;;4.13;1.25;;;14.40;95.70;;;;;;5020991;28;20021;-73
2021/05/22 00:58:26;;;;;;;8.40;1.35;;;14.30;97.50;;;;;;5019977;28;20464;-74
2021/05/22 01:00:53;;;;;;;5.93;1.15;;;14.10;97.00;;;;;;5018831;28;20124;-75
2021/05/22 01:03:45;;;;;;;3.28;0.73;;;14.00;98.60;;;;;;5022715;28;20017;-73
2021/05/22 01:06:12;;;;;;;4.45;0.90;;;13.70;98.60;;;;;;5023276;28;20061;-73
2021/05/22 01:08:39;;;;;;;3.38;1.35;;;13.70;99.90;;;;;;5020340;28;20045;-75
2021/05/22 01:11:20;;;;;;;6.88;1.30;;;13.50;98.70;;;;;;5026762;28;20510;-74
2021/05/22 01:14:03;;;;;;;3.95;1.05;;;13.50;99.30;;;;;;5021974;28;20037;-75
2021/05/22 01:16:29;;;;;;;2.13;0.93;;;13.50;99.90;;;;;;5022076;28;20504;-74
2021/05/22 01:18:57;;;;;;;4.50;1.58;;;13.30;99.90;;;;;;5020455;28;20029;-73
2021/05/22 01:21:23;;;;;;;5.28;0.98;;;13.00;99.90;;;;;;5019024;28;20072;-74
2021/05/22 01:23:57;;;;;;;3.85;1.05;;;12.70;99.90;;;;;;5019638;28;20108;-75
2021/05/22 01:26:25;;;;;;;3.25;0.90;;;12.80;99.90;;;;;;5027853;28;20112;-73
2021/05/22 01:28:51;;;;;;;4.40;1.23;;;12.90;99.90;;;;;;5033174;28;20115;-73
2021/05/22 01:31:18;;;;;;;3.13;1.58;;;13.00;99.90;;;;;;5033543;28;20079;-73
2021/05/22 01:33:44;;;;;;;3.03;1.02;;;13.00;99.90;;;;;;5042577;28;20032;-73
2021/05/22 01:36:09;;;;;;;2.22;0.68;;;12.90;99.90;;;;;;5020203;28;20029;-74
2021/05/22 01:38:35;;;;;;;3.40;1.23;;;12.60;99.90;;;;;;5025694;28;20037;-73
2021/05/22 01:41:01;;;;;;;3.05;0.95;;;12.40;99.90;;;;;;5024127;28;20038;-73
2021/05/22 01:43:27;;;;;;;2.88;0.70;;;12.30;99.90;;;;;;5020230;28;20029;-74
2021/05/22 01:45:54;;;;;;;4.85;1.05;;;12.40;99.90;;;;;;5021920;28;20402;-74
2021/05/22 01:48:26;;;;;;;6.47;1.30;;;12.60;99.90;;;;;;5023746;28;20065;-73
2021/05/22 01:51:14;;;;;;;2.22;0.65;;;12.30;99.90;;;;;;5018307;28;20231;-75
2021/05/22 01:53:41;;;;;;;3.40;1.30;;;12.10;99.90;;;;;;5020593;28;20029;-73
2021/05/22 01:56:09;;;;;;;4.32;1.00;;;12.20;99.90;;;;;;5017916;28;20563;-74
2021/05/22 01:58:36;;;;;;;3.08;0.98;;;12.20;99.90;;;;;;5025404;28;20125;-73
2021/05/22 02:01:02;;;;;;;4.85;1.80;;;12.30;99.90;;;;;;5018843;28;20045;-76
2021/05/22 02:03:35;;;;;;;3.55;0.95;;;12.30;99.90;;;;;;5020480;28;20029;-73
2021/05/22 02:06:08;;;;;;;5.28;1.48;;;12.20;99.90;;;;;;5022935;28;20047;-73
2021/05/22 02:08:38;;;;;;;2.05;0.90;;;12.20;99.90;;;;;;5022760;28;20085;-73
2021/05/22 02:11:05;;;;;;;3.75;1.00;;;12.20;99.90;;;;;;5025233;28;20037;-74
2021/05/22 02:13:32;;;;;;;2.67;0.80;;;12.20;99.90;;;;;;5024792;28;20025;-74
2021/05/22 02:16:00;;;;;;;3.58;1.27;;;12.30;99.90;;;;;;5024572;28;20057;-75
2021/05/22 02:18:28;;;;;;;5.03;1.08;;;12.00;99.90;;;;;;5023888;28;20022;-74
2021/05/22 02:20:57;;;;;;;3.33;1.10;;;11.90;99.90;;;;;;5025793;28;20442;-74
2021/05/22 02:23:24;;;;;;;3.97;1.10;;;11.80;99.90;;;;;;5024575;28;20033;-73
2021/05/22 02:25:54;;;;;;;5.00;1.45;;;11.80;99.90;;;;;;5027749;28;20127;-73
2021/05/22 02:28:21;;;;;;;3.72;1.17;;;11.80;99.90;;;;;;5023001;28;20026;-73
2021/05/22 02:30:47;;;;;;;5.47;1.25;;;11.90;99.90;;;;;;5027634;28;20495;-73
2021/05/22 02:33:16;;;;;;;4.30;1.13;;;11.90;99.90;;;;;;5021200;28;20445;-73
2021/05/22 02:35:44;;;;;;;2.63;1.10;;;11.70;99.90;;;;;;5022576;28;20047;-75
2021/05/22 02:38:14;;;;;;;2.85;0.70;;;11.70;99.90;;;;;;5023900;28;20034;-74
2021/05/22 02:40:42;;;;;;;2.05;1.10;;;11.60;99.90;;;;;;5025132;28;20043;-73
2021/05/22 02:43:09;;;;;;;3.22;1.10;;;11.60;99.90;;;;;;5021728;28;20036;-73
2021/05/22 02:45:40;;;;;;;4.50;1.30;;;12.00;99.90;;;;;;5025172;28;20208;-73
2021/05/22 02:48:08;;;;;;;5.45;1.10;;;11.90;99.90;;;;;;5024396;28;20763;-73
2021/05/22 02:50:35;;;;;;;3.35;1.02;;;11.90;99.90;;;;;;5024391;28;20037;-73
2021/05/22 02:53:02;;;;;;;2.60;1.25;;;11.70;99.90;;;;;;5025455;28;20083;-75
2021/05/22 02:55:29;;;;;;;7.32;1.70;;;11.60;99.90;;;;;;5021431;28;20507;-74
2021/05/22 02:57:55;;;;;;;4.47;1.08;;;11.50;99.90;;;;;;5023456;28;20104;-73
2021/05/22 03:00:23;;;;;;;3.08;1.15;;;11.30;99.90;;;;;;5022484;28;20098;-74
2021/05/22 03:02:49;;;;;;;5.13;1.30;;;11.20;99.90;;;;;;5017812;28;20038;-74
2021/05/22 03:05:16;;;;;;;2.97;0.82;;;11.50;99.90;;;;;;5018617;28;20025;-73
2021/05/22 03:07:41;;;;;;;2.72;1.10;;;11.60;99.90;;;;;;5022900;28;20115;-73
2021/05/22 03:10:08;;;;;;;6.30;0.85;;;11.40;99.90;;;;;;5014230;28;20066;-72
2021/05/22 03:12:36;;;;;;;3.13;1.02;;;11.30;99.90;;;;;;5015273;28;20436;-73
2021/05/22 03:15:06;;;;;;;5.32;1.40;;;11.50;99.90;;;;;;5014699;28;21107;-74
2021/05/22 03:17:32;;;;;;;2.83;0.88;;;11.60;99.90;;;;;;5021252;28;20037;-73
2021/05/22 03:19:58;;;;;;;3.38;1.17;;;11.60;99.90;;;;;;5015879;28;20034;-73
2021/05/22 03:22:24;;;;;;;4.22;1.73;;;11.70;99.90;;;;;;5015951;28;20095;-72
2021/05/22 03:24:50;;;;;;;2.13;0.75;;;11.80;99.90;;;;;;5013509;28;20033;-74
2021/05/22 03:27:16;;;;;;;2.95;1.15;;;11.80;99.90;;;;;;5013441;28;20033;-74
2021/05/22 03:29:42;;;;;;;3.05;0.80;;;11.80;99.90;;;;;;5020108;28;20025;-74
2021/05/22 03:32:07;;;;;;;3.80;0.98;;;11.90;99.90;;;;;;5016142;28;20029;-73
2021/05/22 03:34:33;;;;;;;4.88;1.05;;;12.00;99.90;;;;;;5014532;28;20115;-73
2021/05/22 03:36:59;;;;;;;1.75;0.85;;;11.80;99.90;;;;;;5014317;28;22044;-74
2021/05/22 03:39:25;;;;;;;2.95;1.23;;;11.80;99.90;;;;;;5021015;28;20037;-73
2021/05/22 03:41:51;;;;;;;3.97;0.90;;;11.80;99.90;;;;;;5016008;28;20037;-73
2021/05/22 03:44:17;;;;;;;3.38;0.98;;;11.90;99.90;;;;;;5016028;28;20033;-74
2021/05/22 03:46:43;;;;;;;3.53;1.17;;;11.80;99.90;;;;;;5015566;28;20037;-74
2021/05/22 03:49:08;;;;;;;2.55;1.00;;;11.80;99.90;;;;;;5017554;28;20029;-73
2021/05/22 03:51:34;;;;;;;2.42;0.80;;;11.70;99.90;;;;;;5015407;28;20047;-73
2021/05/22 03:54:00;;;;;;;4.18;1.13;;;11.60;99.90;;;;;;5016710;28;20114;-73
2021/05/22 03:56:25;;;;;;;2.15;0.80;;;11.50;99.90;;;;;;5020856;28;20022;-73
2021/05/22 03:58:53;;;;;;;2.72;1.00;;;11.40;99.90;;;;;;5029015;28;20395;-74
2021/05/22 04:01:18;;;;;;;2.83;1.10;;;11.50;99.90;;;;;;5016791;28;20036;-73
2021/05/22 04:03:44;;;;;;;3.03;1.05;;;11.40;99.90;;;;;;5015676;28;20021;-74
2021/05/22 04:06:10;;;;;;;2.78;0.80;;;11.50;99.90;;;;;;5014770;28;20077;-74
2021/05/22 04:08:35;;;;;;;2.90;1.00;;;11.50;99.90;;;;;;5017635;28;20157;-74
2021/05/22 04:11:03;;;;;;;4.75;0.93;;;11.50;99.90;;;;;;5016516;28;20037;-74
2021/05/22 04:13:29;;;;;;;2.83;1.10;;;11.50;99.90;;;;;;5013647;28;20059;-73
2021/05/22 04:15:54;;;;;;;2.53;1.23;;;11.50;99.90;;;;;;5016209;28;22064;-75
2021/05/22 04:18:20;;;;;;;3.30;1.30;;;11.60;99.90;;;;;;5016706;28;20045;-73
2021/05/22 04:20:46;;;;;;;2.67;0.93;;;11.60;99.90;;;;;;5012219;28;20535;-74
2021/05/22 04:23:12;;;;;;;5.32;1.33;;;11.70;99.90;;;;;;5013726;28;20029;-75
2021/05/22 04:25:37;;;;;;;3.30;0.90;;;11.50;99.90;;;;;;5022159;28;20035;-74
2021/05/22 04:28:03;;;;;;;3.17;0.98;;;11.50;99.90;;;;;;5037280;28;20030;-73
2021/05/22 04:30:29;;;;;;;3.17;1.23;;;11.60;99.90;;;;;;5023122;28;20088;-76
2021/05/22 04:32:55;;;;;;;4.10;1.35;;;11.60;99.90;;;;;;5019792;28;20155;-74
2021/05/22 04:35:21;;;;;;;2.85;1.00;;;11.80;99.90;;;;;;5020655;28;20030;-74
2021/05/22 04:37:46;;;;;;;1.67;0.90;;;11.70;99.90;;;;;;5019086;28;20075;-73
2021/05/22 04:40:13;;;;;;;5.00;1.15;;;11.60;99.90;;;;;;5016950;28;20056;-75
2021/05/22 04:42:38;;;;;;;4.72;1.67;;;11.60;99.90;;;;;;5015448;28;20036;-73
2021/05/22 04:45:06;;;;;;;5.55;1.42;;;11.70;99.90;;;;;;5017132;28;20502;-74
2021/05/22 04:47:32;;;;;;;4.65;1.13;;;11.70;99.90;;;;;;5020140;28;20025;-75
2021/05/22 04:49:57;;;;;;;4.95;1.23;;;11.80;99.90;;;;;;5015568;28;20036;-74
2021/05/22 04:52:23;;;;;;;4.82;1.10;;;11.80;99.90;;;;;;5017208;28;21359;-75
2021/05/22 04:54:50;;;;;;;2.75;1.15;;;11.50;99.90;;;;;;5016684;28;20029;-74
2021/05/22 04:57:16;;;;;;;3.08;1.38;;;11.40;99.90;;;;;;5019457;28;20438;-73
2021/05/22 04:59:42;;;;;;;4.68;1.45;;;11.30;99.90;;;;;;5032734;28;20024;-73
2021/05/22 05:02:08;;;;;;;4.43;0.98;;;11.30;99.90;;;;;;5012275;28;20056;-74
2021/05/22 05:04:33;;;;;;;6.10;1.52;;;11.20;99.90;;;;;;5014610;28;20094;-74
2021/05/22 05:07:00;;;;;;;5.00;1.38;;;11.20;99.90;;;;;;5013818;28;20755;-74
2021/05/22 05:09:25;;;;;;;3.70;0.90;;;11.40;99.90;;;;;;5015316;28;20119;-75
2021/05/22 05:11:51;;;;;;;3.17;1.02;;;11.50;99.90;;;;;;5014372;28;20336;-74
2021/05/22 05:14:17;;;;;;;5.20;1.23;;;11.60;99.90;;;;;;5015342;28;20589;-73
2021/05/22 05:16:42;;;;;;;4.07;1.20;;;11.60;99.90;;;;;;5014910;28;20053;-74
2021/05/22 05:19:08;;;;;;;3.03;1.40;;;11.60;99.90;;;;;;5018229;28;20167;-73
2021/05/22 05:21:33;;;;;;;4.60;1.45;;;11.80;99.90;;;;;;5013166;28;20623;-75
2021/05/22 05:23:59;;;;;;;4.32;1.60;;;11.90;99.90;;;;;;5013354;28;20037;-75
2021/05/22 05:26:25;;;;;;;2.92;1.10;;;11.90;99.90;;;;;;5016080;28;20068;-75
2021/05/22 05:28:50;;;;;;;4.55;1.38;;;12.00;99.90;;;;;;5015014;28;20021;-75
2021/05/22 05:31:16;;;;;;;3.63;1.17;;;12.00;99.90;;;;;;5019725;28;20406;-74
2021/05/22 05:33:42;;;;;;;4.55;1.20;;;12.00;99.90;;;;;;5013414;28;20128;-74
2021/05/22 05:36:07;;;;;;;4.38;1.80;;;12.00;99.90;;;;;;5011522;28;20025;-75
2021/05/22 05:38:33;;;;;;;3.40;1.23;;;11.90;99.90;;;;;;5014934;28;20056;-74
2021/05/22 05:40:59;;;;;;;4.97;1.50;;;12.00;99.90;;;;;;5018079;28;20532;-73
2021/05/22 05:43:25;;;;;;;3.65;1.05;;;12.00;99.90;;;;;;5017142;28;21080;-73
2021/05/22 05:45:51;;;;;;;5.03;1.30;;;12.10;99.90;;;;;;5017741;28;20083;-75
2021/05/22 05:48:17;;;;;;;4.03;1.88;;;12.10;99.90;;;;;;5020324;28;20894;-73
2021/05/22 05:50:42;;;;;;;3.20;1.55;;;12.10;99.90;;;;;;5023398;28;20050;-73
2021/05/22 05:53:08;;;;;;;3.55;1.17;;;12.10;99.90;;;;;;5018494;28;20043;-74
2021/05/22 05:55:34;;;;;;;4.90;1.10;;;12.00;99.90;;;;;;5017343;28;20048;-73
2021/05/22 05:58:00;;;;;;;3.38;1.10;;;12.00;99.90;;;;;;5019395;28;20030;-73
2021/05/22 06:00:26;;;;;;;4.43;1.50;;;12.00;99.90;;;;;;5016891;28;20045;-73
2021/05/22 06:02:52;;;;;;;5.05;1.40;;;12.00;99.90;;;;;;5021060;28;20061;-75
2021/05/22 06:05:18;;;;;;;7.45;1.88;;;12.20;99.90;;;;;;5018631;28;20065;-74
2021/05/22 06:07:44;;;;;;;6.32;1.70;;;12.20;99.90;;;;;;5018166;28;20021;-74
2021/05/22 06:10:11;;;;;;;6.30;2.05;;;12.30;99.90;;;;;;5020488;28;20032;-74
2021/05/22 06:12:38;;;;;;;3.58;1.48;;;12.20;99.90;;;;;;5023681;28;20033;-74
2021/05/22 06:17:40;;;;;;;4.32;1.23;;;12.00;99.90;;;;;;5015969;28;20033;-74
2021/05/22 06:20:06;;;;;;;4.43;1.80;;;12.00;99.90;;;;;;5022759;28;20484;-74
2021/05/22 06:22:32;;;;;;;4.25;1.73;;;12.00;99.90;;;;;;5015712;28;20530;-74
2021/05/22 06:24:58;;;;;;;3.28;1.15;;;12.20;99.90;;;;;;5014703;28;20025;-75
2021/05/22 06:27:57;;;;;;;5.88;1.38;;;12.00;99.90;;;;;;5022181;28;20036;-75
2021/05/22 06:30:23;;;;;;;6.05;1.60;;;12.00;99.90;;;;;;5017269;28;20053;-75
2021/05/22 06:32:49;;;;;;;3.95;1.80;;;12.00;99.90;;;;;;5016266;28;20771;-74
2021/05/22 06:35:14;;;;;;;4.10;1.70;;;12.00;99.90;;;;;;5018548;28;20025;-74
2021/05/22 06:37:40;;;;;;;4.15;1.60;;;12.10;99.90;;;;;;5034474;28;20166;-75
2021/05/22 06:40:08;;;;;;;4.93;1.50;;;12.10;99.90;;;;;;5020347;28;20037;-74
2021/05/22 06:42:35;;;;;;;5.20;1.77;;;12.10;99.90;;;;;;5015087;28;20036;-74
2021/05/22 06:45:03;;;;;;;4.60;1.35;;;12.10;99.90;;;;;;5016633;28;20031;-74
2021/05/22 06:47:28;;;;;;;3.28;1.45;;;12.10;99.90;;;;;;5028039;28;20031;-74
2021/05/22 06:49:54;;;;;;;3.38;1.48;;;12.00;99.90;;;;;;5029098;28;20020;-73
2021/05/22 06:52:20;;;;;;;3.40;1.60;;;12.10;99.90;;;;;;5044879;28;20032;-74
2021/05/22 06:54:46;;;;;;;5.18;1.75;;;12.20;99.90;;;;;;5042283;28;20060;-72
2021/05/22 06:57:12;;;;;;;6.13;1.67;;;12.20;99.90;;;;;;5030313;28;20571;-75
2021/05/22 06:59:39;;;;;;;6.47;2.33;;;12.20;99.90;;;;;;5033636;28;20022;-77
2021/05/22 07:02:05;;;;;;;4.38;1.75;;;12.20;99.90;;;;;;5026789;28;20037;-77
2021/05/22 07:04:31;;;;;;;5.85;1.45;;;12.20;99.90;;;;;;5030313;28;20041;-77
2021/05/22 07:06:56;;;;;;;4.40;1.58;;;12.20;99.90;;;;;;5030386;28;20037;-78
2021/05/22 07:09:22;;;;;;;3.90;1.50;;;12.20;99.90;;;;;;5029636;28;20767;-77
2021/05/22 07:11:48;;;;;;;6.25;1.92;;;12.30;99.90;;;;;;5031027;28;20045;-77
2021/05/22 07:14:14;;;;;;;3.55;1.40;;;12.20;99.90;;;;;;5035770;28;20040;-77
2021/05/22 07:16:39;;;;;;;4.15;1.67;;;12.10;99.90;;;;;;5025702;28;20098;-77
2021/05/22 07:19:05;;;;;;;4.25;1.30;;;12.20;99.90;;;;;;5025302;28;20438;-78
2021/05/22 07:21:32;;;;;;;3.67;1.42;;;12.20;99.90;;;;;;5030085;28;20032;-78
2021/05/22 07:23:57;;;;;;;3.35;1.30;;;12.20;99.90;;;;;;5032307;28;20068;-77
2021/05/22 07:26:23;;;;;;;2.08;1.10;;;12.30;99.90;;;;;;5035438;28;20067;-77
2021/05/22 07:28:49;;;;;;;4.80;1.52;;;12.20;99.90;;;;;;5029553;28;20033;-78
2021/05/22 07:31:15;;;;;;;7.70;1.85;;;12.10;99.90;;;;;;5026431;28;20116;-78
2021/05/22 07:33:42;;;;;;;4.65;1.30;;;12.30;99.90;;;;;;5027290;28;20551;-78
2021/05/22 07:36:11;;;;;;;5.28;1.58;;;12.30;99.90;;;;;;5038938;28;20036;-77
2021/05/22 07:38:39;;;;;;;3.00;1.30;;;12.30;99.90;;;;;;5026131;28;20116;-78
2021/05/22 07:41:05;;;;;;;4.90;1.20;;;12.40;99.90;;;;;;5030756;28;20579;-77
2021/05/22 07:43:31;;;;;;;4.80;1.15;;;12.30;99.90;;;;;;5026971;28;20060;-77
2021/05/22 07:45:57;;;;;;;3.67;1.25;;;12.30;99.90;;;;;;5025078;28;20690;-78
2021/05/22 07:48:24;;;;;;;2.05;1.10;;;12.20;99.90;;;;;;5029180;28;20060;-77
2021/05/22 07:50:52;;;;;;;4.05;1.60;;;12.20;99.90;;;;;;5028481;28;20034;-77
2021/05/22 07:53:19;;;;;;;5.05;1.20;;;12.40;99.90;;;;;;5029409;28;20033;-78
2021/05/22 07:55:45;;;;;;;5.50;1.33;;;12.40;99.90;;;;;;5029905;28;20095;-78
2021/05/22 07:58:11;;;;;;;5.70;1.40;;;12.40;99.90;;;;;;5027279;28;20041;-78
2021/05/22 08:00:37;;;;;;;3.60;1.60;;;12.50;99.90;;;;;;5027272;28;20114;-78
2021/05/22 08:03:03;;;;;;;4.30;0.95;;;12.40;99.90;;;;;;5028451;28;20511;-77
2021/05/22 08:05:29;;;;;;;5.25;1.23;;;12.40;99.90;;;;;;5026537;28;20041;-77
2021/05/22 08:07:55;;;;;;;4.00;1.33;;;12.40;99.90;;;;;;5033374;28;20025;-78
2021/05/22 08:10:20;;;;;;;2.17;1.20;;;12.40;99.90;;;;;;5029051;28;20021;-77
2021/05/22 08:12:46;;;;;;;4.90;1.42;;;12.40;99.90;;;;;;5034510;28;20029;-78
2021/05/22 08:15:12;;;;;;;4.93;1.30;;;12.40;99.90;;;;;;5025672;28;20657;-77
2021/05/22 08:17:38;;;;;;;3.80;1.42;;;12.30;99.90;;;;;;5023715;28;20080;-78
2021/05/22 08:20:05;;;;;;;5.40;0.95;;;12.50;99.90;;;;;;5025635;28;20033;-77
2021/05/22 08:22:33;;;;;;;3.95;1.42;;;12.40;99.90;;;;;;5027767;28;20033;-77
2021/05/22 08:24:59;;;;;;;7.90;1.65;;;12.50;99.90;;;;;;5032258;28;20028;-76
2021/05/22 08:27:25;;;;;;;5.43;1.70;;;12.50;99.90;;;;;;5033226;28;20041;-77
2021/05/22 08:29:50;;;;;;;4.10;1.33;;;12.40;99.90;;;;;;5032233;28;20112;-77
2021/05/22 08:32:16;;;;;;;4.85;1.95;;;12.50;99.90;;;;;;5028111;28;20021;-77
2021/05/22 08:34:42;;;;;;;3.97;2.00;;;12.50;99.90;;;;;;5023839;28;20554;-77
2021/05/22 08:37:08;;;;;;;12.25;6.60;;;12.50;99.90;;;;;;5031147;28;20048;-77
2021/05/22 08:39:35;;;;;;;4.65;1.50;;;12.60;99.90;;;;;;5031388;28;20087;-77
2021/05/22 08:42:05;;;;;;;6.68;1.35;;;12.70;99.90;;;;;;5027894;28;20041;-77
2021/05/22 08:44:31;;;;;;;4.55;0.95;;;12.80;99.90;;;;;;5033747;28;20025;-77
2021/05/22 08:46:56;;;;;;;5.03;1.70;;;12.80;99.90;;;;;;5025790;28;20036;-77
2021/05/22 08:49:22;;;;;;;5.50;1.73;;;12.90;99.90;;;;;;5027240;28;20026;-77
2021/05/22 08:51:48;;;;;;;2.22;1.05;;;13.10;99.90;;;;;;5033023;28;20511;-77
2021/05/22 08:54:14;;;;;;;3.50;1.70;;;13.10;99.90;;;;;;5028235;28;20108;-77
2021/05/22 08:56:39;;;;;;;3.58;1.67;;;13.20;99.90;;;;;;5026104;28;20029;-77
2021/05/22 08:59:07;;;;;;;4.03;1.45;;;13.20;99.90;;;;;;5016657;28;20067;-78
2021/05/22 09:01:32;;;;;;;4.55;1.90;;;13.40;99.90;;;;;;5014076;28;20503;-78
2021/05/22 09:03:58;;;;;;;3.55;1.65;;;13.50;99.90;;;;;;5015439;28;20044;-76
2021/05/22 09:06:24;;;;;;;6.82;2.92;;;13.60;99.90;;;;;;5017250;28;20117;-77
2021/05/22 09:09:04;;;;;;;4.00;1.80;;;13.60;99.90;;;;;;5018119;28;20045;-79
2021/05/22 09:11:44;;;;;;;5.85;1.73;;;13.60;99.90;;;;;;5013816;28;20613;-79
2021/05/22 09:14:10;;;;;;;4.95;1.92;;;13.60;99.90;;;;;;5013189;28;20032;-78
2021/05/22 09:16:36;;;;;;;5.28;2.22;;;13.90;99.90;;;;;;5012305;28;20053;-80
2021/05/22 09:19:02;;;;;;;5.38;1.80;;;14.00;99.90;;;;;;5019116;28;20033;-78
2021/05/22 09:21:34;;;;;;;7.35;1.92;;;14.10;99.90;;;;;;5018702;28;20051;-78
2021/05/22 09:24:00;;;;;;;6.07;2.25;;;14.20;99.90;;;;;;5019249;28;21386;-78
2021/05/22 09:26:32;;;;;;;4.53;2.25;;;14.40;99.90;;;;;;5017356;28;20037;-79
2021/05/22 09:29:01;;;;;;;4.07;1.52;;;14.00;99.90;;;;;;5015542;28;20057;-79
2021/05/22 09:31:27;;;;;;;23.77;3.05;;;14.20;99.90;;;;;;5016260;28;20017;-77
2021/05/22 09:34:00;;;;;;;5.72;1.60;;;14.40;99.90;;;;;;5021074;28;20068;-79
2021/05/22 09:36:26;;;;;;;4.07;2.03;;;14.50;99.90;;;;;;5017171;28;20037;-79
2021/05/22 09:38:54;;;;;;;4.32;2.15;;;14.60;99.90;;;;;;5015928;28;20061;-79
2021/05/22 09:41:28;;;;;;;5.75;1.70;;;14.90;99.90;;;;;;5016381;28;20485;-78
2021/05/22 09:44:10;;;;;;;5.03;1.60;;;14.70;99.90;;;;;;5019363;28;20068;-80
2021/05/22 09:46:38;;;;;;;6.03;2.08;;;14.60;99.90;;;;;;5015999;28;20026;-79
2021/05/22 09:49:07;;;;;;;4.43;2.70;;;14.80;99.90;;;;;;5020444;28;20028;-78
2021/05/22 09:51:53;;;;;;;5.90;1.60;;;15.00;99.90;;;;;;5017942;28;20043;-79
2021/05/22 09:54:42;;;;;;;2.50;1.10;;;15.20;99.90;;;;;;5021444;28;20026;-79
2021/05/22 09:57:10;;;;;;;4.93;1.30;;;15.10;99.90;;;;;;5017426;28;20039;-79
2021/05/22 09:59:39;;;;;;;3.05;1.30;;;15.00;99.90;;;;;;5014904;28;20022;-79
2021/05/22 10:02:04;;;;;;;4.00;1.35;;;14.90;99.90;;;;;;5015090;28;20032;-78
2021/05/22 10:04:30;;;;;;;6.00;3.08;;;15.00;99.90;;;;;;5020717;28;20025;-78
2021/05/22 10:06:59;;;;;;;5.20;1.90;;;14.80;99.90;;;;;;5022667;28;20133;-79
2021/05/22 10:09:25;;;;;;;5.40;2.00;;;15.10;99.90;;;;;;5016751;28;20034;-78
2021/05/22 10:12:04;;;;;;;5.78;1.38;;;15.00;99.90;;;;;;5016278;28;20576;-79
2021/05/22 10:14:38;;;;;;;4.70;1.13;;;15.10;99.90;;;;;;5017243;28;20037;-78
2021/05/22 10:17:05;;;;;;;3.63;1.40;;;15.20;99.90;;;;;;5016688;28;20049;-78
2021/05/22 10:19:33;;;;;;;7.03;1.50;;;15.20;99.90;;;;;;5022775;28;20029;-79
2021/05/22 10:22:00;;;;;;;3.63;1.73;;;15.30;99.90;;;;;;5016643;28;20037;-79
2021/05/22 10:24:26;;;;;;;3.92;1.40;;;15.40;99.90;;;;;;5017800;28;20410;-78
2021/05/22 10:26:54;;;;;;;5.03;1.90;;;15.40;99.90;;;;;;5017060;28;20523;-78
2021/05/22 10:29:20;;;;;;;2.95;1.10;;;15.40;99.90;;;;;;5016811;28;20101;-78
2021/05/22 10:31:47;;;;;;;5.55;1.63;;;15.30;99.90;;;;;;5022153;28;20025;-78
2021/05/22 10:34:15;;;;;;;3.28;1.83;;;15.20;99.90;;;;;;5020643;28;20045;-78
2021/05/22 10:36:59;;;;;;;3.42;1.75;;;15.50;99.90;;;;;;5019172;28;20025;-79
2021/05/22 10:39:39;;;;;;;5.47;2.00;;;15.60;99.90;;;;;;5016323;28;20036;-78
2021/05/22 10:42:18;;;;;;;6.38;2.17;;;15.60;99.90;;;;;;5016083;28;20037;-79
2021/05/22 10:44:44;;;;;;;5.75;1.75;;;15.60;99.90;;;;;;5018753;28;20391;-77
2021/05/22 10:47:12;;;;;;;7.13;2.13;;;15.50;99.90;;;;;;5018225;28;20032;-78
2021/05/22 10:49:44;;;;;;;4.60;1.98;;;15.60;99.90;;;;;;5016074;28;20064;-79
2021/05/22 10:52:18;;;;;;;4.07;1.48;;;15.50;99.90;;;;;;5012132;28;20062;-80
2021/05/22 10:55:03;;;;;;;13.57;2.58;;;15.40;99.90;;;;;;5016583;28;20041;-78
2021/05/22 10:57:30;;;;;;;7.75;1.70;;;15.50;99.90;;;;;;5017855;28;20094;-76
2021/05/22 11:00:14;;;;;;;7.95;2.05;;;15.70;99.90;;;;;;5016268;28;20033;-76
2021/05/22 11:02:45;;;;;;;4.60;2.00;;;15.90;99.90;;;;;;5015436;28;20087;-80
2021/05/22 11:05:28;;;;;;;6.13;1.75;;;16.10;99.90;;;;;;5016695;28;20047;-76
2021/05/22 11:08:03;;;;;;;3.78;1.48;;;16.10;99.90;;;;;;5019499;28;20239;-82
2021/05/22 11:10:38;;;;;;;7.07;1.85;;;16.00;99.90;;;;;;5017504;28;20044;-78
2021/05/22 11:13:05;;;;;;;4.32;1.70;;;16.00;99.90;;;;;;5016244;28;20079;-77
2021/05/22 11:15:47;;;;;;;7.00;1.75;;;16.00;99.90;;;;;;5015664;28;20111;-78
2021/05/22 11:18:15;;;;;;;11.07;2.17;;;16.20;99.90;;;;;;5022681;28;20025;-80
2021/05/22 11:20:43;;;;;;;5.00;2.10;;;16.90;99.90;;;;;;5016319;28;20612;-79
2021/05/22 11:23:09;;;;;;;7.28;1.88;;;16.80;99.90;;;;;;5016848;28;20029;-81
2021/05/22 11:25:51;;;;;;;4.40;1.58;;;16.80;99.90;;;;;;5017188;28;20045;-77
2021/05/22 11:28:20;;;;;;;6.32;2.15;;;16.70;99.90;;;;;;5018683;28;20033;-78
2021/05/22 11:30:54;;;;;;;4.00;1.60;;;17.00;99.90;;;;;;5014188;28;20032;-77
2021/05/22 11:33:22;;;;;;;3.67;1.40;;;17.20;99.90;;;;;;5015174;28;20041;-77
2021/05/22 11:35:56;;;;;;;10.10;2.22;;;17.30;99.90;;;;;;5015917;28;20502;-77
2021/05/22 11:38:23;;;;;;;4.15;1.67;;;17.40;99.90;;;;;;5021047;28;20021;-76
2021/05/22 11:40:51;;;;;;;6.22;2.42;;;16.80;99.90;;;;;;5018932;28;20037;-76
2021/05/22 11:43:18;;;;;;;8.07;2.22;;;17.00;99.90;;;;;;5014667;28;20018;-77
2021/05/22 11:45:57;;;;;;;3.72;1.40;;;17.30;99.90;;;;;;5015822;28;20037;-76
2021/05/22 11:48:45;;;;;;;3.97;1.83;;;17.50;99.90;;;;;;5017376;28;20038;-76
2021/05/22 11:51:19;;;;;;;4.57;1.58;;;17.70;99.90;;;;;;5029119;28;20059;-77
2021/05/22 11:54:01;;;;;;;5.93;1.40;;;17.80;99.90;;;;;;5015477;28;20072;-77
2021/05/22 11:56:29;;;;;;;7.18;1.95;;;18.00;99.90;;;;;;5012967;28;20033;-77
2021/05/22 11:58:57;;;;;;;8.32;1.98;;;17.70;99.90;;;;;;5013002;28;20034;-77
2021/05/22 12:01:27;;;;;;;6.88;1.67;;;18.10;99.90;;;;;;5015553;28;20047;-77
2021/05/22 12:04:01;;;;;;;7.45;1.92;;;18.40;99.90;;;;;;5013965;28;20026;-77
2021/05/22 12:06:39;;;;;;;3.80;1.73;;;18.40;99.60;;;;;;5015781;28;20033;-77
2021/05/22 12:09:07;;;;;;;4.82;1.60;;;18.60;99.00;;;;;;5013909;28;20082;-77
2021/05/22 12:11:36;;;;;;;4.90;1.65;;;18.70;99.90;;;;;;5016017;28;20022;-77
2021/05/22 12:14:07;;;;;;;4.00;1.73;;;18.80;99.90;;;;;;5015456;28;20051;-78
2021/05/22 12:16:35;;;;;;;5.35;2.03;;;18.80;99.90;;;;;;5014265;28;20057;-77
2021/05/22 12:19:21;;;;;;;5.90;1.80;;;18.90;99.70;;;;;;5014210;28;20119;-76
2021/05/22 12:21:49;;;;;;;4.45;1.75;;;19.00;99.40;;;;;;5018214;28;20125;-77
2021/05/22 12:24:15;;;;;;;4.35;1.50;;;18.90;99.90;;;;;;5013640;28;20021;-77
2021/05/22 12:26:54;;;;;;;5.70;2.10;;;19.30;99.60;;;;;;5012999;28;20025;-77
2021/05/22 12:29:26;;;;;;;3.75;1.58;;;19.40;99.50;;;;;;5012349;28;20040;-77
2021/05/22 12:32:04;;;;;;;3.90;1.65;;;19.10;99.20;;;;;;5014441;28;20037;-77
2021/05/22 12:34:32;;;;;;;6.90;1.80;;;19.40;98.90;;;;;;5014064;28;20025;-77
2021/05/22 12:37:10;;;;;;;3.45;1.50;;;19.10;97.80;;;;;;5015062;28;20094;-77
2021/05/22 12:39:42;;;;;;;4.47;1.42;;;19.10;98.30;;;;;;5015114;28;20029;-77
2021/05/22 12:42:27;;;;;;;3.70;1.40;;;18.90;97.90;;;;;;5017680;28;20065;-77
2021/05/22 12:44:55;;;;;;;6.38;1.48;;;19.20;98.10;;;;;;5012253;28;20413;-77
2021/05/22 12:47:23;;;;;;;4.40;1.25;;;19.20;97.70;;;;;;5016816;28;20062;-77
2021/05/22 12:50:05;;;;;;;4.40;1.30;;;19.40;97.70;;;;;;5015308;28;20021;-77
2021/05/22 12:52:31;;;;;;;4.07;1.88;;;19.80;97.90;;;;;;5015628;28;20029;-77